Terminal Aerodrome Forecast
Issued by NWS

Home | Current Version | Previous Version | Text Only | Print | Product List | Glossary On
Versions: 1 2 3 4 5 6 7 8 9 10 11 12 13 14 15
000
FTUS45 KBOI 241835 AAB
TAFMYL
TAF AMD
KMYL 241835Z 2419/2518 20007KT P6SM -RA SCT015 BKN020 OVC050
      TEMPO 2420/2424 VRB25KT -TSRA BKN015 OVC020CB
     FM250700 VRB05KT 2SM -SHSN BR OVC020
     FM251500 33005KT P6SM VCSH SCT020 BKN040
      TEMPO 2515/2518 3SM -SHSN OVC020=

USA.gov is the U.S. government's official web portal to all federal, state and local government web resources and services.